Time;durP1;ratioP1;P1;durP2;ratioP2;P2;SDS_P1;SDS_P2;PMS_P1;PMS_P2;Temp;Humidity;BMP_temperature;BMP_pressure;BME280_temperature;BME280_humidity;BME280_pressure;Samples;Min_cycle;Max_cycle;Signal;HPM_P1;HPM_P2
2022/06/13 00:00:09;;;;;;;7.82;2.38;;;15.10;99.40;;;;;;4986552;28;20042;-41
2022/06/13 00:02:36;;;;;;;7.55;3.50;;;15.00;99.90;;;;;;4986135;28;20235;-40
2022/06/13 00:05:03;;;;;;;7.97;3.05;;;14.90;99.90;;;;;;4971924;28;20038;-40
2022/06/13 00:07:29;;;;;;;8.20;3.03;;;14.90;99.90;;;;;;4972352;28;20227;-39
2022/06/13 00:09:54;;;;;;;8.05;2.53;;;14.90;99.90;;;;;;4989016;28;20205;-42
2022/06/13 00:12:20;;;;;;;9.30;3.38;;;14.90;99.90;;;;;;4990470;28;20041;-40
2022/06/13 00:14:46;;;;;;;9.07;3.13;;;15.00;99.90;;;;;;4991491;28;20085;-40
2022/06/13 00:17:11;;;;;;;7.25;2.67;;;15.00;99.90;;;;;;4988501;28;20373;-40
2022/06/13 00:19:37;;;;;;;9.95;3.30;;;15.00;99.90;;;;;;4990978;28;20387;-40
2022/06/13 00:22:03;;;;;;;9.48;2.80;;;15.00;99.90;;;;;;4992986;28;20043;-39
2022/06/13 00:24:29;;;;;;;7.65;2.67;;;15.00;99.90;;;;;;4957111;28;20050;-39
2022/06/13 00:26:55;;;;;;;8.75;2.95;;;15.00;99.90;;;;;;4986541;28;20451;-40
2022/06/13 00:29:20;;;;;;;9.43;2.80;;;15.00;99.90;;;;;;4989668;28;20042;-41
2022/06/13 00:31:46;;;;;;;8.10;2.45;;;15.00;99.90;;;;;;4989813;28;20058;-43
2022/06/13 00:34:12;;;;;;;8.73;2.97;;;15.00;99.90;;;;;;4987663;28;20491;-41
2022/06/13 00:36:38;;;;;;;7.03;2.25;;;15.00;99.90;;;;;;4989252;28;20049;-40
2022/06/13 00:39:04;;;;;;;7.88;3.05;;;15.00;99.90;;;;;;4970002;28;20052;-40
2022/06/13 00:41:34;;;;;;;7.03;3.22;;;15.10;99.90;;;;;;4990736;28;20037;-39
2022/06/13 00:44:00;;;;;;;9.00;3.08;;;15.20;99.90;;;;;;4988090;28;20188;-40
2022/06/13 00:46:33;;;;;;;5.75;2.58;;;15.20;99.90;;;;;;4992735;28;20061;-40
2022/06/13 00:49:11;;;;;;;10.93;3.80;;;15.20;99.90;;;;;;4988966;28;20117;-39
2022/06/13 00:51:42;;;;;;;8.75;3.92;;;15.30;99.90;;;;;;4989630;28;20035;-41
2022/06/13 00:54:07;;;;;;;12.05;3.33;;;15.20;99.90;;;;;;4988769;28;20034;-40
2022/06/13 00:56:36;;;;;;;9.70;3.88;;;15.20;99.90;;;;;;4992930;28;20057;-39
2022/06/13 00:59:05;;;;;;;10.48;3.40;;;15.20;99.90;;;;;;4988781;28;20057;-40
2022/06/13 01:01:32;;;;;;;6.63;2.70;;;15.20;99.90;;;;;;4991154;28;20503;-40
2022/06/13 01:04:02;;;;;;;8.52;3.10;;;15.20;99.90;;;;;;4988960;28;20126;-40
2022/06/13 01:06:30;;;;;;;12.73;3.60;;;15.10;99.90;;;;;;4987890;28;20050;-40
2022/06/13 01:08:56;;;;;;;7.90;3.13;;;15.10;99.90;;;;;;4991722;28;20048;-41
2022/06/13 01:11:25;;;;;;;9.90;3.47;;;15.00;99.90;;;;;;4989695;28;20050;-42
2022/06/13 01:13:57;;;;;;;10.18;3.35;;;14.90;99.90;;;;;;4989635;28;20508;-40
2022/06/13 01:16:31;;;;;;;9.85;3.25;;;14.90;99.90;;;;;;4984616;28;20061;-41
2022/06/13 01:19:09;;;;;;;9.43;3.45;;;14.90;99.90;;;;;;4988911;28;20435;-40
2022/06/13 01:21:58;;;;;;;9.15;2.95;;;14.80;99.90;;;;;;4973516;28;20066;-40
2022/06/13 01:24:36;;;;;;;7.03;3.13;;;14.80;99.90;;;;;;4986880;28;20059;-40
2022/06/13 01:27:16;;;;;;;7.35;2.78;;;14.70;99.90;;;;;;4988734;28;20096;-41
2022/06/13 01:29:50;;;;;;;7.90;3.20;;;14.60;99.90;;;;;;4986113;28;20066;-41
2022/06/13 01:32:43;;;;;;;7.45;2.75;;;14.50;99.90;;;;;;4984122;28;20614;-40
2022/06/13 01:35:23;;;;;;;6.40;2.90;;;14.40;99.90;;;;;;4988185;28;20038;-40
2022/06/13 01:38:07;;;;;;;10.07;3.45;;;14.40;99.90;;;;;;4991818;28;20180;-41
2022/06/13 01:41:07;;;;;;;8.00;3.10;;;14.30;99.90;;;;;;4989090;28;20499;-40
2022/06/13 01:43:49;;;;;;;10.65;3.17;;;14.30;99.90;;;;;;4989104;28;20042;-39
2022/06/13 01:46:34;;;;;;;7.38;2.58;;;14.30;99.90;;;;;;4990795;28;20069;-39
2022/06/13 01:49:34;;;;;;;10.07;4.13;;;14.30;99.90;;;;;;4988864;28;20044;-40
2022/06/13 01:52:37;;;;;;;8.10;3.10;;;14.30;99.90;;;;;;4986482;28;20045;-41
2022/06/13 01:55:14;;;;;;;13.63;4.45;;;14.20;99.90;;;;;;4989456;28;20096;-39
2022/06/13 01:57:49;;;;;;;11.65;3.70;;;14.20;99.90;;;;;;4988156;28;20376;-41
2022/06/13 02:00:19;;;;;;;9.98;3.55;;;14.10;99.90;;;;;;4987276;28;20053;-40
2022/06/13 02:03:32;;;;;;;9.27;3.95;;;14.10;99.90;;;;;;4986093;28;20038;-42
2022/06/13 02:06:05;;;;;;;10.10;3.58;;;14.10;99.90;;;;;;4910623;29;20121;-40
2022/06/13 02:08:37;;;;;;;11.30;4.82;;;14.10;99.90;;;;;;4967617;28;20585;-40
2022/06/13 02:11:08;;;;;;;11.15;4.30;;;14.00;99.90;;;;;;4988872;28;20076;-40
2022/06/13 02:13:38;;;;;;;11.45;4.60;;;14.00;99.90;;;;;;4987804;28;20042;-39
2022/06/13 02:16:16;;;;;;;8.45;3.88;;;13.90;99.90;;;;;;4993264;28;20042;-40
2022/06/13 02:19:08;;;;;;;9.65;4.78;;;13.90;99.90;;;;;;4987050;28;20057;-39
2022/06/13 02:21:40;;;;;;;9.40;4.32;;;13.90;99.90;;;;;;4985181;28;20104;-41
2022/06/13 02:24:10;;;;;;;8.00;4.03;;;13.90;99.90;;;;;;4986535;28;20038;-41
2022/06/13 02:26:39;;;;;;;11.68;4.57;;;13.90;99.90;;;;;;4986758;28;20049;-41
2022/06/13 02:29:14;;;;;;;17.73;5.85;;;14.00;99.90;;;;;;4986311;28;20045;-40
2022/06/13 02:31:54;;;;;;;11.07;3.85;;;14.00;99.90;;;;;;4980931;28;20560;-40
2022/06/13 02:34:29;;;;;;;11.52;4.65;;;14.00;99.90;;;;;;4986303;28;20542;-43
2022/06/13 02:37:27;;;;;;;11.23;5.07;;;14.00;99.90;;;;;;4991222;28;20043;-40
2022/06/13 02:40:01;;;;;;;10.27;4.07;;;14.00;99.90;;;;;;4984327;28;20108;-40
2022/06/13 02:42:32;;;;;;;10.43;4.50;;;14.10;99.90;;;;;;4969631;28;20045;-43
2022/06/13 02:45:15;;;;;;;11.75;4.15;;;14.00;99.90;;;;;;4965836;28;20042;-40
2022/06/13 02:47:59;;;;;;;11.98;4.95;;;14.10;99.90;;;;;;4981133;28;20492;-44
2022/06/13 02:50:50;;;;;;;8.23;4.70;;;14.00;99.90;;;;;;4985403;28;20043;-39
2022/06/13 02:53:39;;;;;;;10.98;4.97;;;14.00;99.90;;;;;;4988210;28;20056;-39
2022/06/13 02:56:10;;;;;;;13.13;5.07;;;13.90;99.90;;;;;;4966417;28;20432;-40
2022/06/13 02:59:02;;;;;;;15.93;5.32;;;13.90;99.90;;;;;;4988001;28;20058;-42
2022/06/13 03:01:38;;;;;;;12.18;5.47;;;14.00;99.90;;;;;;4986304;28;20104;-41
2022/06/13 03:04:19;;;;;;;11.30;5.38;;;14.00;99.90;;;;;;4986554;28;20096;-39
2022/06/13 03:07:20;;;;;;;10.27;4.78;;;13.90;99.90;;;;;;4982312;28;20526;-40
2022/06/13 03:09:54;;;;;;;12.85;6.32;;;13.90;99.90;;;;;;4989247;28;20468;-40
2022/06/13 03:12:44;;;;;;;10.50;4.47;;;14.00;99.90;;;;;;4987843;28;20092;-41
2022/06/13 03:15:19;;;;;;;13.73;4.93;;;14.00;99.90;;;;;;4986274;28;20404;-41
2022/06/13 03:17:51;;;;;;;12.48;5.55;;;13.90;99.90;;;;;;4988145;28;20065;-39
2022/06/13 03:20:26;;;;;;;9.73;5.20;;;13.90;99.90;;;;;;4988169;28;20056;-40
2022/06/13 03:23:08;;;;;;;18.88;5.93;;;13.90;99.90;;;;;;4986500;28;20136;-40
2022/06/13 03:25:58;;;;;;;12.67;5.77;;;14.00;99.90;;;;;;4991196;28;20068;-40
2022/06/13 03:28:34;;;;;;;9.68;4.30;;;14.00;99.90;;;;;;4988718;28;20300;-41
2022/06/13 03:31:18;;;;;;;12.07;5.05;;;14.00;99.90;;;;;;4987619;28;20403;-40
2022/06/13 03:33:49;;;;;;;13.05;5.63;;;14.00;99.90;;;;;;4991289;28;20113;-40
2022/06/13 03:36:29;;;;;;;17.70;6.00;;;14.10;99.90;;;;;;4990098;28;20567;-40
2022/06/13 03:39:10;;;;;;;15.15;5.55;;;14.10;99.90;;;;;;4987633;28;20478;-40
2022/06/13 03:41:43;;;;;;;12.77;4.90;;;14.10;99.90;;;;;;4987035;28;20078;-40
2022/06/13 03:44:08;;;;;;;;;;;14.10;99.90;;;;;;4989972;28;20042;-39
2022/06/13 03:46:41;;;;;;;13.13;5.32;;;14.10;99.90;;;;;;4995239;28;19925;-39
2022/06/13 03:49:19;;;;;;;;;;;14.10;99.90;;;;;;4990814;28;20037;-40
2022/06/13 03:51:53;;;;;;;12.43;5.32;;;14.10;99.90;;;;;;4989119;28;20296;-39
2022/06/13 03:54:37;;;;;;;14.07;5.90;;;14.10;99.90;;;;;;4983975;28;20081;-40
2022/06/13 03:57:22;;;;;;;12.15;5.22;;;14.10;99.90;;;;;;4987927;28;20046;-40
2022/06/13 03:59:59;;;;;;;14.68;5.78;;;14.20;99.90;;;;;;4988979;28;20085;-40
2022/06/13 04:02:29;;;;;;;14.80;6.15;;;14.20;99.90;;;;;;4984610;28;20113;-39
2022/06/13 04:04:55;;;;;;;11.63;4.55;;;14.20;99.90;;;;;;4990835;28;20130;-39
2022/06/13 04:07:23;;;;;;;10.60;3.70;;;14.20;99.90;;;;;;4993204;28;20121;-40
2022/06/13 04:09:59;;;;;;;9.68;3.42;;;14.30;99.90;;;;;;4990504;28;20113;-40
2022/06/13 04:12:52;;;;;;;8.70;2.53;;;14.30;99.90;;;;;;4993730;28;20483;-40
2022/06/13 04:15:45;;;;;;;5.50;1.50;;;14.40;99.90;;;;;;4986250;28;20517;-40
2022/06/13 04:18:10;;;;;;;;;;;14.50;99.90;;;;;;4991227;28;20503;-40
2022/06/13 04:20:51;;;;;;;6.07;1.77;;;14.50;99.90;;;;;;4990918;28;19947;-40
2022/06/13 04:23:51;;;;;;;9.20;1.80;;;14.60;99.90;;;;;;4991439;28;20345;-40
2022/06/13 04:26:52;;;;;;;8.25;1.30;;;14.60;99.90;;;;;;4984003;28;20155;-40
2022/06/13 04:29:32;;;;;;;6.15;1.70;;;14.70;99.90;;;;;;4972389;28;20569;-43
2022/06/13 04:32:04;;;;;;;6.00;1.33;;;14.70;99.90;;;;;;4991358;28;21453;-46
2022/06/13 04:34:36;;;;;;;6.60;1.33;;;14.70;99.90;;;;;;4992466;28;20046;-40
2022/06/13 04:37:04;;;;;;;4.53;1.20;;;14.80;99.90;;;;;;4989515;28;20640;-41
2022/06/13 04:39:34;;;;;;;6.28;1.55;;;14.80;99.90;;;;;;4987539;28;20530;-40
2022/06/13 04:42:02;;;;;;;6.55;1.30;;;14.90;99.90;;;;;;4989575;28;20053;-39
2022/06/13 04:44:30;;;;;;;4.13;1.23;;;14.90;99.90;;;;;;4989461;28;20129;-40
2022/06/13 04:46:57;;;;;;;5.55;1.33;;;14.90;99.90;;;;;;4993515;28;20101;-40
2022/06/13 04:49:40;;;;;;;3.65;1.00;;;15.00;99.90;;;;;;4990392;28;20410;-40
2022/06/13 04:52:08;;;;;;;;;;;15.00;99.90;;;;;;4990768;28;20042;-39
2022/06/13 04:54:44;;;;;;;4.25;0.98;;;15.00;99.90;;;;;;4989747;28;20012;-39
2022/06/13 04:57:15;;;;;;;7.70;1.33;;;15.00;99.90;;;;;;4991026;28;20472;-40
2022/06/13 04:59:42;;;;;;;6.00;1.00;;;15.00;99.90;;;;;;4988747;28;20046;-40
2022/06/13 05:02:19;;;;;;;4.05;1.15;;;15.00;99.90;;;;;;4988808;28;20050;-42
2022/06/13 05:04:45;;;;;;;4.43;1.13;;;14.90;99.90;;;;;;4985384;28;20046;-41
2022/06/13 05:07:22;;;;;;;4.15;1.10;;;14.90;99.90;;;;;;4993867;28;20030;-40
2022/06/13 05:10:03;;;;;;;6.07;1.48;;;14.90;99.90;;;;;;4987340;28;20125;-40
2022/06/13 05:12:41;;;;;;;5.90;1.25;;;14.90;99.90;;;;;;4984521;28;20558;-39
2022/06/13 05:15:19;;;;;;;5.00;1.15;;;14.90;99.90;;;;;;4984034;28;20467;-39
2022/06/13 05:18:19;;;;;;;3.00;1.13;;;14.90;99.90;;;;;;4986482;28;20038;-40
2022/06/13 05:21:00;;;;;;;4.40;1.10;;;14.90;99.90;;;;;;4990732;28;20136;-40
2022/06/13 05:23:45;;;;;;;4.53;0.80;;;14.90;99.90;;;;;;4982994;28;20116;-41
2022/06/13 05:26:11;;;;;;;6.63;1.00;;;14.90;99.90;;;;;;4986677;28;20510;-42
2022/06/13 05:28:37;;;;;;;6.50;1.23;;;14.90;99.90;;;;;;4985444;28;20058;-38
2022/06/13 05:31:16;;;;;;;5.53;0.88;;;14.90;99.90;;;;;;4990133;28;20054;-39
2022/06/13 05:33:43;;;;;;;3.35;0.80;;;15.10;99.90;;;;;;4989257;28;20117;-40
2022/06/13 05:36:14;;;;;;;3.78;0.80;;;15.20;99.90;;;;;;4988609;28;20049;-39
2022/06/13 05:38:47;;;;;;;3.85;0.90;;;15.40;99.90;;;;;;4990084;28;20694;-42
2022/06/13 05:41:13;;;;;;;5.45;1.40;;;15.60;99.90;;;;;;4985650;28;20051;-39
2022/06/13 05:43:39;;;;;;;3.00;0.60;;;15.60;99.90;;;;;;4986729;28;20061;-41
2022/06/13 05:46:07;;;;;;;3.20;0.63;;;15.60;99.90;;;;;;4991681;28;20760;-39
2022/06/13 05:48:33;;;;;;;2.90;0.98;;;15.60;99.60;;;;;;4991927;28;20053;-39
2022/06/13 05:50:58;;;;;;;3.38;0.70;;;15.60;99.20;;;;;;4993128;28;20731;-41
2022/06/13 05:53:25;;;;;;;5.35;1.08;;;15.50;99.40;;;;;;4989553;28;20035;-39
2022/06/13 05:55:59;;;;;;;4.15;0.60;;;15.50;99.50;;;;;;4988096;28;20407;-40
2022/06/13 05:58:25;;;;;;;2.15;0.60;;;15.50;99.50;;;;;;4985241;28;20050;-40
2022/06/13 06:00:54;;;;;;;4.40;0.85;;;15.50;99.80;;;;;;4991157;28;20133;-40
2022/06/13 06:03:19;;;;;;;3.00;0.90;;;15.40;99.80;;;;;;4986698;28;20128;-41
2022/06/13 06:05:46;;;;;;;4.03;0.70;;;15.40;99.80;;;;;;4985181;28;20108;-42
2022/06/13 06:08:22;;;;;;;5.57;0.98;;;15.40;99.90;;;;;;4995993;28;20547;-40
2022/06/13 06:10:50;;;;;;;3.88;0.68;;;15.60;99.90;;;;;;4988375;28;20038;-42
2022/06/13 06:13:16;;;;;;;4.75;0.82;;;15.70;99.90;;;;;;4988848;28;20038;-41
2022/06/13 06:15:43;;;;;;;4.82;0.90;;;15.80;99.90;;;;;;4988392;28;20042;-40
2022/06/13 06:18:10;;;;;;;3.20;0.80;;;15.90;99.60;;;;;;4987802;28;20121;-40
2022/06/13 06:20:36;;;;;;;6.75;0.75;;;15.90;99.00;;;;;;4994361;28;20170;-40
2022/06/13 06:23:03;;;;;;;5.47;0.90;;;15.90;99.10;;;;;;4993668;28;20097;-39
2022/06/13 06:25:29;;;;;;;7.00;1.23;;;15.80;99.20;;;;;;4989403;28;20448;-41
2022/06/13 06:27:55;;;;;;;5.50;1.10;;;15.80;98.70;;;;;;4987556;28;20045;-39
2022/06/13 06:30:21;;;;;;;5.80;0.98;;;15.90;99.00;;;;;;4988242;28;20482;-40
2022/06/13 06:32:47;;;;;;;6.03;1.15;;;15.90;99.30;;;;;;4982264;28;20064;-40
2022/06/13 06:35:14;;;;;;;7.50;0.77;;;16.00;99.80;;;;;;4980062;28;20411;-39
2022/06/13 06:37:48;;;;;;;8.77;1.13;;;16.10;98.40;;;;;;4981308;28;20109;-40
2022/06/13 06:40:19;;;;;;;2.22;0.77;;;16.20;97.80;;;;;;4965900;28;20132;-40
2022/06/13 06:42:45;;;;;;;9.00;0.98;;;16.20;97.60;;;;;;4979645;28;20169;-42
2022/06/13 06:45:12;;;;;;;5.97;1.40;;;16.20;98.20;;;;;;4977662;28;20126;-43
2022/06/13 06:47:39;;;;;;;6.97;1.05;;;16.20;97.80;;;;;;4980337;28;20034;-41
2022/06/13 06:50:06;;;;;;;3.42;0.90;;;16.30;97.60;;;;;;4985838;28;20518;-40
2022/06/13 06:52:32;;;;;;;10.50;1.00;;;16.30;97.20;;;;;;4987935;28;20053;-40
2022/06/13 07:00:26;;;;;;;5.75;0.70;;;16.30;97.70;;;;;;4981549;28;20073;-41
2022/06/13 07:02:52;;;;;;;4.38;0.73;;;16.40;97.50;;;;;;4985713;28;20046;-40
2022/06/13 07:05:18;;;;;;;4.57;0.70;;;16.50;96.40;;;;;;4986234;28;20038;-40
2022/06/13 07:07:43;;;;;;;5.28;1.20;;;16.50;95.80;;;;;;4982203;28;20517;-41
2022/06/13 07:10:13;;;;;;;4.40;0.70;;;16.40;96.20;;;;;;4983303;28;20080;-41
2022/06/13 07:12:39;;;;;;;5.00;0.80;;;16.40;96.60;;;;;;4968272;28;20508;-41
2022/06/13 07:15:05;;;;;;;4.93;1.38;;;16.40;95.40;;;;;;4982906;28;20148;-41
2022/06/13 07:17:31;;;;;;;7.88;0.90;;;16.50;95.00;;;;;;4986106;28;20453;-43
2022/06/13 07:19:56;;;;;;;7.40;0.85;;;16.50;94.30;;;;;;4983200;28;20031;-40
2022/06/13 07:22:24;;;;;;;3.35;0.70;;;16.40;94.90;;;;;;4985386;28;20104;-40
2022/06/13 07:24:51;;;;;;;3.92;0.63;;;16.50;95.40;;;;;;4987982;28;20042;-41
2022/06/13 07:27:18;;;;;;;4.15;1.00;;;16.50;95.20;;;;;;4967787;28;20042;-41
2022/06/13 07:29:43;;;;;;;3.53;1.10;;;16.50;95.40;;;;;;4986845;28;20121;-40
2022/06/13 07:32:19;;;;;;;4.03;0.80;;;16.40;96.00;;;;;;4977988;28;20350;-42
2022/06/13 07:34:47;;;;;;;5.25;0.60;;;16.30;96.50;;;;;;4986070;28;20070;-41
2022/06/13 07:38:16;;;;;;;6.25;0.68;;;16.30;95.50;;;;;;4984314;28;20050;-40
2022/06/13 07:40:04;;;;;;;2.00;0.47;;;16.40;95.90;;;;;;4980764;28;20054;-40
2022/06/13 07:42:37;;;;;;;3.95;0.70;;;16.50;95.10;;;;;;4970140;28;20465;-41
2022/06/13 07:45:04;;;;;;;4.40;1.02;;;16.60;95.30;;;;;;4983097;28;20252;-39
2022/06/13 07:47:30;;;;;;;3.30;0.70;;;16.60;94.60;;;;;;4993932;28;20495;-41
2022/06/13 07:49:56;;;;;;;5.82;0.60;;;16.50;95.30;;;;;;4988013;28;20038;-41
2022/06/13 07:52:21;;;;;;;5.30;0.63;;;16.50;96.30;;;;;;4988957;28;20072;-40
2022/06/13 07:54:47;;;;;;;4.47;0.85;;;16.60;96.40;;;;;;4989643;28;20022;-40
2022/06/13 07:57:13;;;;;;;5.07;0.90;;;16.50;96.40;;;;;;4986897;28;20044;-44
2022/06/13 07:59:40;;;;;;;3.70;0.70;;;16.60;96.70;;;;;;4972547;28;20478;-40
2022/06/13 08:02:14;;;;;;;3.50;0.60;;;16.80;96.60;;;;;;4989178;28;20034;-40
2022/06/13 08:04:40;;;;;;;4.57;0.90;;;17.10;95.70;;;;;;4999728;28;20511;-41
2022/06/13 08:07:08;;;;;;;3.65;0.60;;;17.30;94.80;;;;;;4994641;28;20077;-40
2022/06/13 08:09:33;;;;;;;6.38;1.00;;;17.20;94.80;;;;;;4992804;28;20084;-41
2022/06/13 08:11:59;;;;;;;6.97;0.90;;;16.90;94.20;;;;;;4987516;28;20442;-40
2022/06/13 08:14:25;;;;;;;3.65;0.77;;;16.60;94.30;;;;;;4998002;28;20042;-41
2022/06/13 08:16:50;;;;;;;5.85;0.65;;;16.40;95.40;;;;;;4989558;28;20042;-42
2022/06/13 08:19:17;;;;;;;5.18;0.63;;;16.10;96.10;;;;;;4989680;28;20058;-43
2022/06/13 08:21:43;;;;;;;6.25;0.60;;;15.90;96.20;;;;;;4993932;28;20372;-40
2022/06/13 08:24:09;;;;;;;6.53;0.80;;;15.90;96.50;;;;;;4975942;28;20525;-43
2022/06/13 08:26:34;;;;;;;4.93;0.85;;;16.10;95.60;;;;;;4989095;28;20073;-43
2022/06/13 08:29:00;;;;;;;2.58;0.60;;;16.40;95.90;;;;;;4990650;28;20505;-41
2022/06/13 08:31:26;;;;;;;2.15;0.57;;;16.70;94.30;;;;;;4972061;28;20057;-40
2022/06/13 08:33:52;;;;;;;4.95;0.60;;;17.00;93.00;;;;;;4991267;28;20038;-41
2022/06/13 08:36:19;;;;;;;3.00;0.52;;;17.00;90.10;;;;;;4985073;28;20053;-41
2022/06/13 08:38:45;;;;;;;5.95;0.57;;;16.90;87.00;;;;;;4984541;28;20093;-41
2022/06/13 08:41:11;;;;;;;2.47;0.40;;;17.00;89.20;;;;;;4984588;28;20046;-42
2022/06/13 08:44:02;;;;;;;4.13;0.70;;;17.10;83.40;;;;;;4987023;28;20031;-39
2022/06/13 08:47:10;;;;;;;3.50;0.35;;;17.20;83.90;;;;;;4984023;28;20495;-40
2022/06/13 08:49:47;;;;;;;1.75;0.50;;;17.40;82.10;;;;;;4994045;28;20373;-41
2022/06/13 08:52:15;;;;;;;5.40;0.50;;;17.40;82.40;;;;;;4988375;28;20257;-40
2022/06/13 08:54:45;;;;;;;4.97;1.35;;;17.30;82.50;;;;;;4992189;28;20192;-41
2022/06/13 08:57:12;;;;;;;3.75;0.40;;;17.10;85.90;;;;;;4971717;28;20368;-41
2022/06/13 08:59:45;;;;;;;3.90;0.50;;;17.00;82.70;;;;;;4988573;28;20502;-40
2022/06/13 09:02:16;;;;;;;2.45;0.60;;;17.10;84.00;;;;;;4983933;28;20069;-40
2022/06/13 09:04:57;;;;;;;5.13;0.50;;;17.30;81.40;;;;;;4989912;28;20124;-41
2022/06/13 09:07:44;;;;;;;2.43;0.57;;;17.30;75.90;;;;;;4988486;28;20042;-41
2022/06/13 09:10:19;;;;;;;5.15;0.57;;;17.30;74.40;;;;;;4988854;28;20042;-39
2022/06/13 09:13:06;;;;;;;1.88;0.40;;;17.50;76.50;;;;;;4972078;28;20077;-39
2022/06/13 09:15:39;;;;;;;5.45;0.90;;;17.70;75.20;;;;;;5000318;28;20116;-43
2022/06/13 09:18:38;;;;;;;2.40;0.40;;;17.70;74.60;;;;;;4994286;28;20042;-40
2022/06/13 09:21:19;;;;;;;4.32;0.60;;;17.60;74.20;;;;;;4989303;28;20161;-39
2022/06/13 09:24:00;;;;;;;1.92;0.30;;;17.60;76.40;;;;;;4990346;28;20445;-42
2022/06/13 09:26:33;;;;;;;4.53;0.55;;;17.70;71.90;;;;;;4994438;28;20068;-39
2022/06/13 09:29:14;;;;;;;2.40;0.60;;;17.70;70.60;;;;;;4993802;28;20169;-39
2022/06/13 09:32:00;;;;;;;2.30;0.50;;;17.70;68.00;;;;;;4988600;28;20146;-42
2022/06/13 09:34:49;;;;;;;3.67;0.50;;;17.80;72.30;;;;;;4984581;28;20487;-39
2022/06/13 09:37:31;;;;;;;2.20;0.40;;;17.80;69.60;;;;;;4990191;28;20038;-39
2022/06/13 09:39:58;;;;;;;3.97;0.70;;;17.70;69.10;;;;;;4988242;28;20042;-39
2022/06/13 09:42:36;;;;;;;5.00;0.73;;;17.60;70.40;;;;;;4991340;28;20034;-42
2022/06/13 09:45:25;;;;;;;3.13;0.65;;;17.70;70.80;;;;;;4980756;28;20108;-40
2022/06/13 09:48:19;;;;;;;4.60;0.70;;;17.80;69.70;;;;;;4998054;28;20104;-41
2022/06/13 09:50:59;;;;;;;3.22;0.50;;;17.80;70.00;;;;;;4962066;28;20061;-39
2022/06/13 09:53:50;;;;;;;6.05;0.75;;;17.70;71.50;;;;;;4985684;28;20034;-39
2022/06/13 09:57:01;;;;;;;4.53;0.70;;;17.90;72.90;;;;;;4983105;28;20405;-41
2022/06/13 09:59:49;;;;;;;3.45;0.65;;;18.20;73.50;;;;;;4974433;28;20046;-40
2022/06/13 10:02:23;;;;;;;6.15;1.00;;;18.30;73.30;;;;;;4983487;28;20053;-41
2022/06/13 10:05:36;;;;;;;5.63;0.60;;;18.10;72.60;;;;;;4979359;28;20036;-40
2022/06/13 10:08:20;;;;;;;4.75;1.08;;;17.70;74.40;;;;;;4920932;29;20576;-39
2022/06/13 10:10:52;;;;;;;2.80;0.73;;;17.90;78.00;;;;;;4983437;28;20038;-40
2022/06/13 10:13:37;;;;;;;3.08;0.40;;;18.00;69.00;;;;;;4979121;28;20073;-41
2022/06/13 10:16:45;;;;;;;5.43;0.70;;;18.10;69.70;;;;;;4964299;28;20066;-39
2022/06/13 10:19:22;;;;;;;5.13;0.60;;;18.20;67.80;;;;;;4966162;28;20042;-41
2022/06/13 10:21:58;;;;;;;6.85;1.00;;;18.40;68.60;;;;;;4966935;28;20376;-43
2022/06/13 10:24:37;;;;;;;5.30;0.60;;;18.50;70.30;;;;;;4960915;28;20138;-41
2022/06/13 10:27:11;;;;;;;4.50;0.68;;;18.50;66.60;;;;;;4962570;28;20050;-41
2022/06/13 10:30:04;;;;;;;3.67;0.55;;;18.50;67.40;;;;;;4965183;28;20043;-41
2022/06/13 10:32:56;;;;;;;3.75;0.80;;;18.30;68.10;;;;;;4951764;28;20538;-41
2022/06/13 10:35:40;;;;;;;4.93;0.60;;;17.90;67.70;;;;;;4964345;28;20050;-41
2022/06/13 10:38:19;;;;;;;2.53;0.45;;;17.70;68.50;;;;;;4964945;28;20043;-42
2022/06/13 10:40:46;;;;;;;2.42;0.82;;;17.80;71.30;;;;;;4966412;28;20511;-41
2022/06/13 10:43:12;;;;;;;3.35;0.50;;;17.80;70.10;;;;;;4966940;28;20114;-41
2022/06/13 10:45:41;;;;;;;13.57;0.90;;;17.70;69.90;;;;;;4966616;28;20037;-41
2022/06/13 10:48:19;;;;;;;3.42;0.60;;;17.70;72.40;;;;;;4968548;28;20093;-43
2022/06/13 10:50:53;;;;;;;4.05;1.02;;;17.70;74.00;;;;;;4950445;28;20041;-40
2022/06/13 10:53:26;;;;;;;6.10;0.70;;;17.90;72.70;;;;;;4966272;28;20542;-40
2022/06/13 10:55:57;;;;;;;4.97;0.73;;;18.10;71.60;;;;;;4969964;28;20035;-40
2022/06/13 10:58:33;;;;;;;3.88;1.13;;;18.20;70.60;;;;;;4963593;28;20047;-42
2022/06/13 11:01:09;;;;;;;6.75;0.77;;;18.10;66.70;;;;;;4965556;28;20049;-41
2022/06/13 11:03:39;;;;;;;4.25;0.73;;;18.40;72.00;;;;;;4967947;28;20053;-40
2022/06/13 11:06:07;;;;;;;6.50;0.63;;;18.40;63.90;;;;;;4967346;28;20504;-41
2022/06/13 11:08:34;;;;;;;4.75;0.60;;;18.10;64.90;;;;;;4962448;28;20049;-41
2022/06/13 11:11:02;;;;;;;5.50;0.73;;;17.90;66.00;;;;;;4958982;28;20035;-41
2022/06/13 11:13:36;;;;;;;4.25;0.85;;;18.10;68.20;;;;;;4956833;28;20754;-41
2022/06/13 11:24:42;;;;;;;8.05;1.00;;;18.30;65.20;;;;;;4987789;28;20054;-42
2022/06/13 11:27:40;;;;;;;6.63;1.00;;;18.50;65.10;;;;;;4989042;28;20043;-40
2022/06/13 11:30:27;;;;;;;4.85;0.60;;;18.80;67.60;;;;;;4986390;28;20074;-39
2022/06/13 11:33:32;;;;;;;5.15;0.90;;;18.90;64.30;;;;;;4984399;28;20506;-39
2022/06/13 11:36:15;;;;;;;8.98;1.20;;;19.30;63.60;;;;;;4971798;28;20104;-39
2022/06/13 11:39:02;;;;;;;3.80;0.70;;;19.40;64.70;;;;;;4992844;28;20142;-39
2022/06/13 11:41:39;;;;;;;5.75;0.65;;;19.20;63.20;;;;;;4993145;28;20042;-39
2022/06/13 11:44:08;;;;;;;5.13;1.13;;;18.90;64.20;;;;;;4970373;28;20050;-42
2022/06/13 11:46:41;;;;;;;4.75;0.80;;;18.70;66.90;;;;;;4971113;28;20042;-40
2022/06/13 11:49:15;;;;;;;;;;;18.80;69.00;;;;;;4988167;28;20053;-40
2022/06/13 11:51:49;;;;;;;6.07;0.98;;;18.80;66.20;;;;;;4982584;28;20525;-41
2022/06/13 11:54:24;;;;;;;7.45;0.85;;;18.70;67.40;;;;;;4988435;28;20057;-42
2022/06/13 11:57:08;;;;;;;4.93;0.73;;;18.80;65.80;;;;;;4988796;28;20512;-39
2022/06/13 11:59:34;;;;;;;6.85;0.90;;;18.80;64.80;;;;;;4988558;28;20035;-40
2022/06/13 12:01:59;;;;;;;6.07;0.77;;;18.60;63.80;;;;;;4990788;28;20031;-40
2022/06/13 12:04:25;;;;;;;7.57;0.70;;;18.40;66.20;;;;;;4990268;28;20385;-39
2022/06/13 12:06:59;;;;;;;4.18;0.77;;;18.30;68.30;;;;;;4990630;28;20049;-41
2022/06/13 12:09:31;;;;;;;6.72;0.95;;;18.60;68.20;;;;;;4992003;28;20057;-41
2022/06/13 12:12:00;;;;;;;;;;;18.60;64.90;;;;;;4992478;28;20514;-43
2022/06/13 12:14:30;;;;;;;4.60;0.90;;;18.50;64.40;;;;;;4991843;28;20378;-41
2022/06/13 12:17:17;;;;;;;7.50;0.88;;;18.30;67.60;;;;;;4991248;28;20050;-42
2022/06/13 12:20:04;;;;;;;5.25;0.70;;;18.10;69.30;;;;;;4991205;28;20046;-42
2022/06/13 12:22:36;;;;;;;3.22;0.70;;;18.10;70.70;;;;;;4984403;28;20062;-39
2022/06/13 12:25:31;;;;;;;3.63;0.70;;;18.40;69.80;;;;;;4992851;28;20077;-41
2022/06/13 12:28:11;;;;;;;6.47;0.68;;;18.50;67.80;;;;;;4985581;28;20050;-40
2022/06/13 12:30:52;;;;;;;5.60;0.70;;;18.30;69.80;;;;;;4991275;28;20522;-39
2022/06/13 12:33:42;;;;;;;6.68;0.68;;;18.10;70.10;;;;;;4992144;28;20464;-41
2022/06/13 12:36:22;;;;;;;6.65;0.57;;;18.20;70.40;;;;;;4989905;28;20038;-41
2022/06/13 12:38:56;;;;;;;4.15;1.00;;;18.60;69.20;;;;;;4988192;28;20042;-40
2022/06/13 12:41:45;;;;;;;2.88;0.70;;;18.60;63.90;;;;;;4972214;28;20583;-41
2022/06/13 12:44:49;;;;;;;6.03;0.85;;;18.40;66.70;;;;;;4987733;28;20574;-40
2022/06/13 12:47:35;;;;;;;4.32;0.68;;;18.10;68.60;;;;;;4990745;28;20449;-40
2022/06/13 12:50:19;;;;;;;3.58;0.55;;;17.90;70.20;;;;;;4989899;28;20070;-39
2022/06/13 12:53:12;;;;;;;6.43;0.70;;;17.80;71.10;;;;;;4987069;28;20041;-39
2022/06/13 12:55:53;;;;;;;5.28;0.80;;;17.70;71.00;;;;;;4989161;28;20177;-41
2022/06/13 12:59:03;;;;;;;7.50;1.00;;;17.90;71.40;;;;;;4988078;28;20130;-42
2022/06/13 13:01:40;;;;;;;4.35;0.60;;;18.40;64.40;;;;;;4982856;28;20038;-39
2022/06/13 13:04:44;;;;;;;7.03;0.77;;;18.80;63.10;;;;;;4990402;28;20038;-40
2022/06/13 13:07:25;;;;;;;5.45;0.95;;;19.00;61.80;;;;;;4989359;28;20077;-43
2022/06/13 13:10:18;;;;;;;6.03;0.70;;;19.30;61.20;;;;;;4966657;28;20070;-42
2022/06/13 13:12:56;;;;;;;;;;;19.40;60.50;;;;;;4989854;28;20039;-40
2022/06/13 13:15:34;;;;;;;7.30;0.77;;;19.60;61.70;;;;;;4992534;28;19977;-41
2022/06/13 13:18:23;;;;;;;3.63;0.90;;;19.60;60.40;;;;;;4986930;28;20049;-40
2022/06/13 13:21:19;;;;;;;2.47;0.60;;;19.70;60.10;;;;;;4990282;28;20492;-43
2022/06/13 13:24:21;;;;;;;3.58;0.80;;;19.70;56.40;;;;;;4993520;28;20100;-39
2022/06/13 13:26:59;;;;;;;;;;;19.80;56.40;;;;;;4979831;28;20506;-41
2022/06/13 13:29:43;;;;;;;4.93;0.70;;;19.80;56.30;;;;;;4992603;28;19921;-40
2022/06/13 13:32:24;;;;;;;4.70;0.68;;;20.00;57.70;;;;;;4988495;28;20050;-39
2022/06/13 13:34:55;;;;;;;6.38;0.80;;;20.00;57.30;;;;;;4988549;28;20561;-40
2022/06/13 13:37:31;;;;;;;8.25;0.63;;;19.90;59.10;;;;;;4986422;28;20411;-41
2022/06/13 13:40:03;;;;;;;4.28;0.50;;;20.10;59.90;;;;;;4993504;28;20036;-41
2022/06/13 13:42:37;;;;;;;3.83;0.50;;;20.30;56.80;;;;;;4988988;28;20082;-39
2022/06/13 13:45:41;;;;;;;3.20;0.75;;;20.40;54.10;;;;;;4990762;28;20058;-40